createdAt,value
2023-04-04T00:00:58.433Z,99830.69
2023-04-04T00:03:29.738Z,99827.08
2023-04-04T00:05:57.864Z,99829.82
2023-04-04T00:08:25.797Z,99832.23
2023-04-04T00:11:01.244Z,99827.20
2023-04-04T00:13:31.096Z,99828.23
2023-04-04T00:15:59.031Z,99827.88
2023-04-04T00:18:27.468Z,99827.37
2023-04-04T00:20:55.449Z,99822.02
2023-04-04T00:23:27.600Z,99823.08
2023-04-04T00:25:55.728Z,99825.30
2023-04-04T00:28:23.639Z,99830.80
2023-04-04T00:30:51.453Z,99836.79
2023-04-04T00:33:20.261Z,99838.02
2023-04-04T00:35:48.812Z,99841.60
2023-04-04T00:38:16.953Z,99843.48
2023-04-04T00:40:46.296Z,99844.33
2023-04-04T00:43:14.579Z,99846.39
2023-04-04T00:45:43.064Z,99843.48
2023-04-04T00:48:11.601Z,99842.30
2023-04-04T00:50:40.128Z,99838.71
2023-04-04T00:53:10.572Z,99836.32
2023-04-04T00:55:39.738Z,99833.37
2023-04-04T00:58:07.557Z,99835.60
2023-04-04T01:00:35.973Z,99838.67
2023-04-04T01:03:23.574Z,99841.11
2023-04-04T01:05:51.845Z,99842.52
2023-04-04T01:08:21.585Z,99840.95
2023-04-04T01:10:50.710Z,99843.54
2023-04-04T01:13:18.842Z,99846.28
2023-04-04T01:15:47.920Z,99842.36
2023-04-04T01:18:17.288Z,99844.48
2023-04-04T01:20:56.612Z,99845.17
2023-04-04T01:23:24.991Z,99849.49
2023-04-04T01:25:59.747Z,99850.88
2023-04-04T01:28:27.879Z,99854.64
2023-04-04T01:30:56.953Z,99859.42
2023-04-04T01:33:44.700Z,99862.16
2023-04-04T01:36:21.693Z,99866.44
2023-04-04T01:38:54.477Z,99868.66
2023-04-04T01:41:24.981Z,99867.98
2023-04-04T01:43:57.280Z,99867.61
2023-04-04T01:46:25.723Z,99874.13
2023-04-04T01:48:53.917Z,99879.97
2023-04-04T01:51:25.504Z,99880.26
2023-04-04T01:53:53.921Z,99879.52
2023-04-04T01:56:22.019Z,99875.36
2023-04-04T01:58:50.020Z,99875.37
2023-04-04T02:01:17.896Z,99875.25
2023-04-04T02:03:45.751Z,99869.29
2023-04-04T02:06:14.518Z,99868.34
2023-04-04T02:08:43.296Z,99862.34
2023-04-04T02:11:12.395Z,99855.79
2023-04-04T02:13:46.058Z,99851.09
2023-04-04T02:16:16.481Z,99854.02
2023-04-04T02:18:45.005Z,99854.54
2023-04-04T02:21:17.877Z,99855.95
2023-04-04T02:23:45.804Z,99857.80
2023-04-04T02:26:13.642Z,99855.14
2023-04-04T02:28:43.986Z,99851.72
2023-04-04T02:31:11.937Z,99848.02
2023-04-04T02:33:41.671Z,99841.80
2023-04-04T02:36:15.526Z,99833.39
2023-04-04T02:38:43.816Z,99832.69
2023-04-04T02:41:11.639Z,99832.41
2023-04-04T02:43:40.772Z,99830.70
2023-04-04T02:46:20.491Z,99832.77
2023-04-04T02:48:52.341Z,99836.21
2023-04-04T02:51:20.433Z,99842.94
2023-04-04T02:53:48.978Z,99843.40
2023-04-04T02:56:23.520Z,99836.99
2023-04-04T02:58:51.336Z,99841.16
2023-04-04T03:01:19.669Z,99845.86
2023-04-04T03:03:48.105Z,99847.08
2023-04-04T03:06:16.139Z,99854.49
2023-04-04T03:08:43.999Z,99857.93
2023-04-04T03:11:11.967Z,99858.28
2023-04-04T03:13:39.885Z,99859.80
2023-04-04T03:16:08.003Z,99866.66
2023-04-04T03:18:47.301Z,99871.73
2023-04-04T03:21:20.310Z,99873.67
2023-04-04T03:23:48.790Z,99872.62
2023-04-04T03:26:16.790Z,99879.48
2023-04-04T03:28:45.490Z,99883.14
2023-04-04T03:31:13.606Z,99888.50
2023-04-04T03:33:43.083Z,99879.06
2023-04-04T03:36:12.498Z,99877.98
2023-04-04T03:38:41.055Z,99879.88
2023-04-04T03:41:10.888Z,99882.45
2023-04-04T03:43:39.215Z,99876.42
2023-04-04T03:46:07.757Z,99876.95
2023-04-04T03:48:35.688Z,99871.77
2023-04-04T03:51:05.213Z,99875.76
2023-04-04T03:53:33.556Z,99868.77
2023-04-04T03:56:04.940Z,99871.08
2023-04-04T03:58:35.507Z,99869.02
2023-04-04T04:01:03.519Z,99871.44
2023-04-04T04:03:31.766Z,99874.37
2023-04-04T04:06:00.284Z,99872.79
2023-04-04T04:08:28.169Z,99874.14
2023-04-04T04:11:04.443Z,99879.66
2023-04-04T04:13:34.767Z,99881.53
2023-04-04T04:16:03.610Z,99886.89
2023-04-04T04:18:32.772Z,99891.36
2023-04-04T04:21:02.998Z,99887.92
2023-04-04T04:23:36.731Z,99888.60
2023-04-04T04:26:05.353Z,99894.98
2023-04-04T04:28:34.475Z,99892.17
2023-04-04T04:31:09.252Z,99888.91
2023-04-04T04:33:42.469Z,99889.98
2023-04-04T04:36:11.561Z,99898.13
2023-04-04T04:39:02.740Z,99901.38
2023-04-04T04:41:33.493Z,99898.62
2023-04-04T04:44:02.281Z,99892.92
2023-04-04T04:46:31.803Z,99887.67
2023-04-04T04:49:05.858Z,99888.90
2023-04-04T04:51:35.970Z,99893.71
2023-04-04T04:54:03.790Z,99897.71
2023-04-04T04:56:34.072Z,99900.63
2023-04-04T04:59:09.122Z,99902.17
2023-04-04T05:01:42.687Z,99895.48
2023-04-04T05:04:11.255Z,99891.35
2023-04-04T05:06:44.809Z,99890.45
2023-04-04T05:09:15.548Z,99890.96
2023-04-04T05:11:47.812Z,99895.30
2023-04-04T05:14:16.033Z,99897.74
2023-04-04T05:16:53.268Z,99907.39
2023-04-04T05:19:22.048Z,99914.66
2023-04-04T05:21:52.568Z,99915.16
2023-04-04T05:24:43.786Z,99922.33
2023-04-04T05:27:14.956Z,99934.30
2023-04-04T05:29:48.280Z,99943.52
2023-04-04T05:32:19.059Z,99935.96
2023-04-04T05:34:53.147Z,99918.42
2023-04-04T05:37:21.718Z,99898.63
2023-04-04T05:39:50.574Z,99893.16
2023-04-04T05:42:19.048Z,99892.16
2023-04-04T05:44:50.419Z,99892.89
2023-04-04T05:47:21.985Z,99916.04
2023-04-04T05:49:50.580Z,99924.69
2023-04-04T05:52:20.372Z,99927.98
2023-04-04T05:54:49.177Z,99918.82
2023-04-04T05:57:24.211Z,99915.04
2023-04-04T06:00:02.226Z,99926.05
2023-04-04T06:02:33.628Z,99937.79
2023-04-04T06:05:04.535Z,99944.34
2023-04-04T06:07:39.734Z,99947.60
2023-04-04T06:10:09.669Z,99950.71
2023-04-04T06:12:39.428Z,99952.41
2023-04-04T06:15:10.788Z,99956.68
2023-04-04T06:17:39.796Z,99954.77
2023-04-04T06:20:08.689Z,99948.27
2023-04-04T06:22:37.061Z,99946.90
2023-04-04T06:25:06.618Z,99945.20
2023-04-04T06:27:35.467Z,99942.47
2023-04-04T06:30:08.619Z,99941.97
2023-04-04T06:32:45.168Z,99944.20
2023-04-04T06:35:19.536Z,99944.08
2023-04-04T06:37:56.113Z,99940.27
2023-04-04T06:40:25.733Z,99930.83
2023-04-04T06:42:57.956Z,99932.38
2023-04-04T06:45:29.703Z,99929.90
2023-04-04T06:47:58.237Z,99930.06
2023-04-04T06:50:27.451Z,99929.05
2023-04-04T06:52:55.579Z,99926.49
2023-04-04T06:55:23.783Z,99926.31
2023-04-04T06:57:54.468Z,99924.27
2023-04-04T07:00:22.314Z,99922.02
2023-04-04T07:02:50.675Z,99919.96
2023-04-04T07:05:18.497Z,99924.27
2023-04-04T07:07:47.810Z,99926.95
2023-04-04T07:10:15.843Z,99932.05
2023-04-04T07:12:45.559Z,99933.96
2023-04-04T07:15:13.760Z,99938.58
2023-04-04T07:17:42.966Z,99937.20
2023-04-04T07:20:11.459Z,99938.08
2023-04-04T07:22:40.234Z,99938.64
2023-04-04T07:25:09.736Z,99940.20
2023-04-04T07:27:37.891Z,99945.18
2023-04-04T07:30:06.230Z,99947.90
2023-04-04T07:32:34.260Z,99951.48
2023-04-04T07:35:05.108Z,99957.67
2023-04-04T07:37:33.507Z,99962.69
2023-04-04T07:40:01.426Z,99962.93
2023-04-04T07:42:31.209Z,99964.10
2023-04-04T07:44:59.398Z,99966.34
2023-04-04T07:47:28.353Z,99965.65
2023-04-04T07:49:56.514Z,99965.64
2023-04-04T07:52:24.269Z,99967.03
2023-04-04T07:54:52.998Z,99965.81
2023-04-04T07:57:21.188Z,99964.59
2023-04-04T07:59:48.996Z,99967.83
2023-04-04T08:02:22.490Z,99970.58
2023-04-04T08:04:50.589Z,99965.22
2023-04-04T08:07:18.316Z,99958.66
2023-04-04T08:09:46.089Z,99955.38
2023-04-04T08:12:14.242Z,99953.98
2023-04-04T08:14:42.230Z,99955.49
2023-04-04T08:17:10.086Z,99955.50
2023-04-04T08:19:38.465Z,99961.02
2023-04-04T08:22:06.233Z,99960.84
2023-04-04T08:24:35.205Z,99966.10
2023-04-04T08:27:05.645Z,99962.60
2023-04-04T08:29:34.432Z,99961.38
2023-04-04T08:32:02.769Z,99955.17
2023-04-04T08:34:30.801Z,99954.64
2023-04-04T08:36:58.704Z,99954.80
2023-04-04T08:39:27.315Z,99957.25
2023-04-04T08:41:58.258Z,99962.38
2023-04-04T08:44:26.232Z,99967.19
2023-04-04T08:46:54.000Z,99974.02
2023-04-04T08:49:22.316Z,99971.10
2023-04-04T08:51:50.085Z,99968.90
2023-04-04T08:54:17.857Z,99967.14
2023-04-04T08:56:45.720Z,99966.59
2023-04-04T08:59:15.726Z,99971.16
2023-04-04T09:01:45.153Z,99975.59
2023-04-04T09:04:13.799Z,99976.71
2023-04-04T09:06:42.263Z,99974.61
2023-04-04T09:09:10.359Z,99977.30
2023-04-04T09:11:38.055Z,99976.13
2023-04-04T09:14:06.215Z,99973.48
2023-04-04T09:16:35.011Z,99974.33
2023-04-04T09:19:03.123Z,99974.80
2023-04-04T09:21:33.248Z,99970.80
2023-04-04T09:24:01.381Z,99972.52
2023-04-04T09:26:30.357Z,99977.34
2023-04-04T09:28:58.797Z,99974.55
2023-04-04T09:31:27.264Z,99975.39
2023-04-04T09:33:55.100Z,99975.30
2023-04-04T09:36:23.165Z,99974.88
2023-04-04T09:38:51.289Z,99975.16
2023-04-04T09:41:20.923Z,99971.95
2023-04-04T09:43:49.520Z,99972.55
2023-04-04T09:46:21.241Z,99971.25
2023-04-04T09:48:50.791Z,99966.55
2023-04-04T09:51:18.721Z,99966.42
2023-04-04T09:53:47.664Z,99965.70
2023-04-04T09:56:15.785Z,99967.05
2023-04-04T09:59:00.276Z,99968.24
2023-04-04T10:01:31.650Z,99965.46
2023-04-04T10:04:00.201Z,99963.89
2023-04-04T10:06:28.727Z,99961.23
2023-04-04T10:08:59.532Z,99954.77
2023-04-04T10:11:32.411Z,99957.16
2023-04-04T10:14:00.997Z,99956.77
2023-04-04T10:16:37.296Z,99958.41
2023-04-04T10:19:07.900Z,99957.25
2023-04-04T10:21:43.079Z,99953.95
2023-04-04T10:24:11.554Z,99956.18
2023-04-04T10:26:39.587Z,99953.90
2023-04-04T10:29:10.447Z,99955.64
2023-04-04T10:31:41.099Z,99951.33
2023-04-04T10:34:15.134Z,99950.11
2023-04-04T10:36:44.920Z,99945.67
2023-04-04T10:39:12.855Z,99953.90
2023-04-04T10:41:40.811Z,99955.61
2023-04-04T10:44:15.225Z,99957.59
2023-04-04T10:46:43.401Z,99956.55
2023-04-04T10:49:11.724Z,99959.41
2023-04-04T10:51:53.058Z,99965.16
2023-04-04T10:54:25.230Z,99965.42
2023-04-04T10:56:53.690Z,99965.50
2023-04-04T10:59:22.422Z,99963.01
2023-04-04T11:01:58.508Z,99961.19
2023-04-04T11:04:38.298Z,99960.61
2023-04-04T11:07:09.466Z,99953.73
2023-04-04T11:09:46.682Z,99954.09
2023-04-04T11:12:21.717Z,99951.48
2023-04-04T11:15:02.497Z,99948.72
2023-04-04T11:17:49.040Z,99948.29
2023-04-04T11:20:21.403Z,99944.70
2023-04-04T11:22:50.012Z,99943.17
2023-04-04T11:25:25.990Z,99943.29
2023-04-04T11:27:54.968Z,99946.61
2023-04-04T11:30:22.901Z,99950.08
2023-04-04T11:33:03.986Z,99953.27
2023-04-04T11:35:37.957Z,99952.81
2023-04-04T11:38:14.653Z,99950.55
2023-04-04T11:40:43.425Z,99946.84
2023-04-04T11:43:17.092Z,99946.89
2023-04-04T11:45:45.407Z,99943.58
2023-04-04T11:48:17.860Z,99943.27
2023-04-04T11:50:49.632Z,99941.19
2023-04-04T11:53:17.940Z,99940.65
2023-04-04T11:55:48.357Z,99935.92
2023-04-04T11:58:16.555Z,99933.77
2023-04-04T12:00:47.848Z,99935.30
2023-04-04T12:03:18.518Z,99933.50
2023-04-04T12:05:46.818Z,99931.71
2023-04-04T12:08:18.303Z,99933.90
2023-04-04T12:10:47.563Z,99935.22
2023-04-04T12:13:15.533Z,99934.32
2023-04-04T12:15:44.972Z,99935.04
2023-04-04T12:18:20.183Z,99931.85
2023-04-04T12:20:48.375Z,99935.02
2023-04-04T12:23:18.971Z,99928.60
2023-04-04T12:25:49.911Z,99926.25
2023-04-04T12:28:20.236Z,99925.86
2023-04-04T12:30:48.533Z,99928.70
2023-04-04T12:33:17.456Z,99930.95
2023-04-04T12:35:55.029Z,99934.97
2023-04-04T12:38:24.899Z,99933.61
2023-04-04T12:40:52.922Z,99932.37
2023-04-04T12:43:21.169Z,99930.98
2023-04-04T12:45:52.186Z,99932.20
2023-04-04T12:48:21.423Z,99928.58
2023-04-04T12:50:53.353Z,99924.23
2023-04-04T12:53:28.879Z,99925.11
2023-04-04T12:56:02.326Z,99923.09
2023-04-04T12:58:31.434Z,99920.96
2023-04-04T13:01:00.031Z,99919.65
2023-04-04T13:03:29.504Z,99920.57
2023-04-04T13:05:58.435Z,99916.89
2023-04-04T13:08:26.448Z,99915.48
2023-04-04T13:11:02.149Z,99914.55
2023-04-04T13:13:38.893Z,99911.70
2023-04-04T13:16:10.620Z,99910.73
2023-04-04T13:18:39.267Z,99909.99
2023-04-04T13:21:07.993Z,99907.38
2023-04-04T13:23:37.647Z,99904.39
2023-04-04T13:26:06.013Z,99908.50
2023-04-04T13:28:34.057Z,99900.95
2023-04-04T13:31:08.187Z,99902.36
2023-04-04T13:33:36.798Z,99899.88
2023-04-04T13:36:04.955Z,99895.50
2023-04-04T13:38:36.673Z,99892.59
2023-04-04T13:41:05.292Z,99888.08
2023-04-04T13:43:34.932Z,99891.58
2023-04-04T13:46:03.422Z,99891.86
2023-04-04T13:48:32.092Z,99895.11
2023-04-04T13:51:00.998Z,99898.19
2023-04-04T13:53:28.980Z,99899.66
2023-04-04T13:56:16.778Z,99902.20
2023-04-04T13:58:47.295Z,99896.38
2023-04-04T14:01:15.502Z,99894.35
2023-04-04T14:03:44.670Z,99889.80
2023-04-04T14:06:12.791Z,99884.65
2023-04-04T14:08:40.579Z,99882.05
2023-04-04T14:11:10.829Z,99882.48
2023-04-04T14:13:40.056Z,99881.14
2023-04-04T14:16:08.562Z,99882.52
2023-04-04T14:18:37.019Z,99882.77
2023-04-04T14:21:05.423Z,99881.30
2023-04-04T14:23:33.245Z,99882.73
2023-04-04T14:26:01.263Z,99881.78
2023-04-04T14:28:31.506Z,99880.92
2023-04-04T14:30:59.932Z,99881.80
2023-04-04T14:33:27.926Z,99884.21
2023-04-04T14:35:55.877Z,99881.85
2023-04-04T14:38:23.628Z,99879.64
2023-04-04T14:40:52.824Z,99875.52
2023-04-04T14:43:21.689Z,99873.66
2023-04-04T14:45:50.912Z,99873.17
2023-04-04T14:48:19.057Z,99876.42
2023-04-04T14:50:47.012Z,99876.39
2023-04-04T14:53:17.328Z,99876.45
2023-04-04T14:55:45.395Z,99875.73
2023-04-04T14:58:14.551Z,99880.27
2023-04-04T15:00:42.769Z,99879.23
2023-04-04T15:03:12.449Z,99880.11
2023-04-04T15:05:43.993Z,99882.03
2023-04-04T15:08:13.291Z,99878.71
2023-04-04T15:10:41.419Z,99883.52
2023-04-04T15:13:13.844Z,99883.30
2023-04-04T15:15:42.955Z,99882.60
2023-04-04T15:18:11.101Z,99883.63
2023-04-04T15:20:41.046Z,99886.23
2023-04-04T15:23:09.132Z,99888.92
2023-04-04T15:25:37.005Z,99886.35
2023-04-04T15:28:05.394Z,99884.99
2023-04-04T15:30:33.542Z,99886.35
2023-04-04T15:33:02.702Z,99888.02
2023-04-04T15:35:30.978Z,99887.61
2023-04-04T15:37:59.087Z,99884.88
2023-04-04T15:40:27.203Z,99884.22
2023-04-04T15:42:56.994Z,99884.25
2023-04-04T15:45:24.937Z,99883.11
2023-04-04T15:47:53.204Z,99879.84
2023-04-04T15:50:21.415Z,99878.46
2023-04-04T15:52:49.488Z,99873.95
2023-04-04T15:55:20.679Z,99872.41
2023-04-04T15:57:49.723Z,99869.64
2023-04-04T16:00:17.770Z,99867.42
2023-04-04T16:02:47.127Z,99864.65
2023-04-04T16:05:15.353Z,99861.68
2023-04-04T16:07:43.680Z,99856.77
2023-04-04T16:10:14.718Z,99858.50
2023-04-04T16:12:43.183Z,99855.05
2023-04-04T16:15:12.527Z,99851.08
2023-04-04T16:17:40.918Z,99848.30
2023-04-04T16:20:10.080Z,99848.98
2023-04-04T16:22:38.066Z,99846.27
2023-04-04T16:25:08.759Z,99845.72
2023-04-04T16:27:37.272Z,99846.07
2023-04-04T16:30:08.257Z,99842.62
2023-04-04T16:32:37.435Z,99838.66
2023-04-04T16:35:06.234Z,99835.52
2023-04-04T16:37:36.800Z,99837.03
2023-04-04T16:40:05.194Z,99836.14
2023-04-04T16:42:33.220Z,99833.91
2023-04-04T16:45:01.910Z,99832.52
2023-04-04T16:47:30.643Z,99828.60
2023-04-04T16:49:58.770Z,99826.96
2023-04-04T16:52:26.961Z,99826.80
2023-04-04T16:54:55.427Z,99827.83
2023-04-04T16:57:25.017Z,99826.96
2023-04-04T16:59:52.914Z,99825.90
2023-04-04T17:02:20.680Z,99820.93
2023-04-04T17:04:48.522Z,99822.21
2023-04-04T17:07:16.975Z,99828.27
2023-04-04T17:09:46.526Z,99823.89
2023-04-04T17:12:15.502Z,99822.23
2023-04-04T17:14:45.311Z,99822.06
2023-04-04T17:17:13.528Z,99823.48
2023-04-04T17:19:41.647Z,99825.09
2023-04-04T17:22:09.441Z,99826.65
2023-04-04T17:24:37.490Z,99827.57
2023-04-04T17:27:05.396Z,99830.19
2023-04-04T17:29:33.312Z,99830.40
2023-04-04T17:32:02.825Z,99828.20
2023-04-04T17:34:30.933Z,99831.05
2023-04-04T17:36:59.023Z,99831.29
2023-04-04T17:39:27.151Z,99833.66
2023-04-04T17:41:54.856Z,99831.48
2023-04-04T17:44:23.133Z,99833.17
2023-04-04T17:46:51.213Z,99839.10
2023-04-04T17:49:22.173Z,99842.08
2023-04-04T17:51:50.269Z,99839.86
2023-04-04T17:54:18.070Z,99837.50
2023-04-04T17:56:47.231Z,99831.16
2023-04-04T17:59:17.487Z,99822.20
2023-04-04T18:01:45.432Z,99814.98
2023-04-04T18:04:13.994Z,99806.33
2023-04-04T18:06:42.184Z,99796.20
2023-04-04T18:09:10.653Z,99794.00
2023-04-04T18:11:40.325Z,99790.21
2023-04-04T18:14:08.736Z,99784.33
2023-04-04T18:16:40.335Z,99781.17
2023-04-04T18:19:09.694Z,99785.30
2023-04-04T18:21:38.479Z,99784.63
2023-04-04T18:24:07.944Z,99793.11
2023-04-04T18:26:36.082Z,99796.19
2023-04-04T18:29:04.059Z,99799.27
2023-04-04T18:31:32.085Z,99805.09
2023-04-04T18:34:00.967Z,99808.21
2023-04-04T18:36:29.053Z,99811.64
2023-04-04T18:38:57.599Z,99819.57
2023-04-04T18:41:25.974Z,99825.33
2023-04-04T18:43:53.876Z,99831.18
2023-04-04T18:46:22.059Z,99840.21
2023-04-04T18:48:50.047Z,99849.13
2023-04-04T18:51:21.519Z,99854.52
2023-04-04T18:53:53.231Z,99857.07
2023-04-04T18:56:22.306Z,99858.55
2023-04-04T18:58:50.709Z,99859.98
2023-04-04T19:01:19.125Z,99858.52
2023-04-04T19:03:51.450Z,99852.14
2023-04-04T19:06:21.040Z,99843.05
2023-04-04T19:08:48.849Z,99838.76
2023-04-04T19:11:16.858Z,99832.73
2023-04-04T19:13:44.797Z,99830.29
2023-04-04T19:16:15.664Z,99834.27
2023-04-04T19:18:44.460Z,99834.11
2023-04-04T19:21:12.288Z,99837.98
2023-04-04T19:23:41.696Z,99838.27
2023-04-04T19:26:09.608Z,99835.88
2023-04-04T19:28:37.777Z,99834.20
2023-04-04T19:31:07.786Z,99835.13
2023-04-04T19:33:36.992Z,99837.78
2023-04-04T19:36:09.434Z,99836.31
2023-04-04T19:38:40.409Z,99839.48
2023-04-04T19:41:09.489Z,99843.99
2023-04-04T19:43:37.723Z,99851.77
2023-04-04T19:46:09.574Z,99858.52
2023-04-04T19:48:51.060Z,99864.58
2023-04-04T19:51:19.984Z,99859.65
2023-04-04T19:53:57.079Z,99861.44
2023-04-04T19:56:26.079Z,99870.14
2023-04-04T19:58:55.404Z,99876.53
2023-04-04T20:01:23.961Z,99878.09
2023-04-04T20:03:52.382Z,99882.25
2023-04-04T20:06:31.647Z,99885.59
2023-04-04T20:09:07.411Z,99881.81
2023-04-04T20:11:35.896Z,99887.42
2023-04-04T20:14:07.584Z,99880.84
2023-04-04T20:16:36.011Z,99880.33
2023-04-04T20:19:06.624Z,99876.77
2023-04-04T20:21:35.779Z,99868.81
2023-04-04T20:24:10.248Z,99864.09
2023-04-04T20:26:38.034Z,99860.39
2023-04-04T20:29:06.420Z,99850.67
2023-04-04T20:31:35.057Z,99848.30
2023-04-04T20:34:05.052Z,99846.30
2023-04-04T20:36:33.058Z,99842.36
2023-04-04T20:39:01.484Z,99842.37
2023-04-04T20:41:29.943Z,99838.82
2023-04-04T20:43:58.397Z,99836.80
2023-04-04T20:46:26.745Z,99837.68
2023-04-04T20:48:56.578Z,99832.92
2023-04-04T20:51:31.000Z,99831.63
2023-04-04T20:53:59.741Z,99828.01
2023-04-04T20:56:39.592Z,99825.23
2023-04-04T20:59:07.974Z,99825.36
2023-04-04T21:01:35.917Z,99822.20
2023-04-04T21:04:04.239Z,99822.77
2023-04-04T21:06:32.273Z,99823.14
2023-04-04T21:09:02.078Z,99819.38
2023-04-04T21:11:30.474Z,99818.29
2023-04-04T21:13:58.865Z,99814.74
2023-04-04T21:16:27.281Z,99814.08
2023-04-04T21:18:59.046Z,99811.89
2023-04-04T21:21:27.304Z,99801.69
2023-04-04T21:23:58.880Z,99799.23
2023-04-04T21:26:29.886Z,99793.60
2023-04-04T21:29:02.118Z,99789.87
2023-04-04T21:31:35.122Z,99785.92
2023-04-04T21:34:07.171Z,99781.56
2023-04-04T21:36:36.366Z,99780.31
2023-04-04T21:39:09.617Z,99776.54
2023-04-04T21:41:38.191Z,99778.61
2023-04-04T21:44:06.990Z,99776.59
2023-04-04T21:46:35.768Z,99772.63
2023-04-04T21:49:04.167Z,99768.85
2023-04-04T21:51:32.262Z,99767.93
2023-04-04T21:54:00.453Z,99765.15
2023-04-04T21:56:31.539Z,99760.59
2023-04-04T21:59:04.145Z,99759.85
2023-04-04T22:01:32.200Z,99762.10
2023-04-04T22:04:01.784Z,99760.39
2023-04-04T22:06:31.205Z,99764.85
2023-04-04T22:08:59.362Z,99762.10
2023-04-04T22:11:27.728Z,99762.23
2023-04-04T22:14:07.474Z,99759.85
2023-04-04T22:16:42.898Z,99762.45
2023-04-04T22:19:11.934Z,99761.01
2023-04-04T22:21:48.072Z,99764.98
2023-04-04T22:24:18.275Z,99764.50
2023-04-04T22:26:47.430Z,99762.94
2023-04-04T22:29:15.565Z,99763.30
2023-04-04T22:31:43.688Z,99766.99
2023-04-04T22:34:14.753Z,99768.05
2023-04-04T22:36:45.916Z,99765.11
2023-04-04T22:39:16.367Z,99770.20
2023-04-04T22:41:44.799Z,99771.03
2023-04-04T22:44:13.429Z,99765.81
2023-04-04T22:46:41.710Z,99767.69
2023-04-04T22:49:09.913Z,99767.46
2023-04-04T22:51:45.473Z,99765.02
2023-04-04T22:54:15.484Z,99757.83
2023-04-04T22:56:43.531Z,99753.91
2023-04-04T22:59:12.173Z,99747.52
2023-04-04T23:01:40.526Z,99740.67
2023-04-04T23:04:09.919Z,99743.60
2023-04-04T23:06:38.658Z,99743.13
2023-04-04T23:09:08.035Z,99737.46
2023-04-04T23:11:37.086Z,99734.84
2023-04-04T23:14:14.974Z,99734.58
2023-04-04T23:16:43.945Z,99728.20
2023-04-04T23:19:12.474Z,99724.92
2023-04-04T23:21:40.507Z,99721.13
2023-04-04T23:24:08.845Z,99723.73
2023-04-04T23:26:36.741Z,99715.62
2023-04-04T23:29:05.740Z,99713.42
2023-04-04T23:31:33.682Z,99706.69
2023-04-04T23:34:02.294Z,99704.30
2023-04-04T23:36:31.129Z,99704.26
2023-04-04T23:38:59.441Z,99701.87
2023-04-04T23:41:27.434Z,99703.73
2023-04-04T23:43:55.790Z,99703.39
2023-04-04T23:46:23.977Z,99706.12
2023-04-04T23:48:52.097Z,99715.52
2023-04-04T23:51:23.551Z,99723.30
2023-04-04T23:53:51.315Z,99724.95
2023-04-04T23:56:19.107Z,99720.83
2023-04-04T23:58:48.954Z,99717.81
